createdAt,value
2022-12-29T00:05:15.221Z,3.90
2022-12-29T00:10:37.481Z,4.50
2022-12-29T00:15:59.711Z,4.70
2022-12-29T00:21:42.378Z,4.70
2022-12-29T00:27:23.168Z,4.80
2022-12-29T00:33:03.751Z,4.80
2022-12-29T00:38:45.014Z,4.70
2022-12-29T00:44:11.238Z,4.40
2022-12-29T00:49:34.071Z,4.20
2022-12-29T00:54:56.725Z,3.80
2022-12-29T01:00:18.971Z,3.40
2022-12-29T01:05:41.141Z,3.30
2022-12-29T01:11:09.375Z,3.30
2022-12-29T01:16:31.840Z,3.20
2022-12-29T01:21:54.177Z,3.30
2022-12-29T01:27:16.377Z,3.20
2022-12-29T01:32:39.416Z,3.10
2022-12-29T01:38:01.632Z,2.90
2022-12-29T01:43:39.727Z,2.40
2022-12-29T01:49:25.069Z,2.20
2022-12-29T01:54:51.905Z,2.40
2022-12-29T02:00:15.066Z,2.80
2022-12-29T02:05:51.434Z,3.20
2022-12-29T02:11:14.787Z,3.30
2022-12-29T02:17:06.985Z,3.10
2022-12-29T02:22:36.816Z,3.30
2022-12-29T02:28:26.315Z,2.70
2022-12-29T02:33:54.480Z,3.20
2022-12-29T02:39:25.213Z,4.50
2022-12-29T02:44:56.250Z,4.70
2022-12-29T02:50:26.520Z,4.80
2022-12-29T02:55:53.367Z,4.80
2022-12-29T03:02:09.951Z,4.70
2022-12-29T03:07:57.448Z,4.60
2022-12-29T03:13:50.428Z,4.10
2022-12-29T03:19:48.817Z,3.30
2022-12-29T03:25:26.484Z,3.00
2022-12-29T03:30:48.906Z,2.70
2022-12-29T03:36:21.201Z,2.70
2022-12-29T03:41:45.662Z,2.40
2022-12-29T03:47:10.675Z,2.50
2022-12-29T03:52:33.063Z,2.50
2022-12-29T03:57:55.320Z,2.40
2022-12-29T04:03:28.449Z,2.30
2022-12-29T04:08:51.660Z,2.20
2022-12-29T04:14:14.108Z,2.00
2022-12-29T04:19:36.688Z,1.90
2022-12-29T04:24:59.598Z,1.70
2022-12-29T04:30:22.112Z,1.60
2022-12-29T04:36:03.719Z,1.70
2022-12-29T04:41:26.283Z,1.90
2022-12-29T04:46:49.563Z,1.50
2022-12-29T04:52:35.017Z,1.40
2022-12-29T04:57:58.410Z,1.30
2022-12-29T05:03:22.169Z,1.20
2022-12-29T05:08:45.292Z,0.90
2022-12-29T05:14:07.791Z,1.00
2022-12-29T05:19:31.555Z,2.30
2022-12-29T05:24:55.032Z,2.30
2022-12-29T05:30:18.502Z,2.40
2022-12-29T05:35:40.731Z,2.80
2022-12-29T05:41:03.537Z,2.80
2022-12-29T05:46:54.957Z,2.40
2022-12-29T05:52:46.928Z,2.20
2022-12-29T05:58:09.572Z,2.00
2022-12-29T06:03:32.902Z,1.50
2022-12-29T06:08:55.615Z,1.30
2022-12-29T06:14:17.954Z,1.50
2022-12-29T06:19:40.269Z,1.30
2022-12-29T06:25:05.233Z,1.40
2022-12-29T06:30:28.989Z,1.50
2022-12-29T06:35:51.275Z,1.70
2022-12-29T06:41:13.605Z,1.70
2022-12-29T06:46:38.795Z,1.60
2022-12-29T06:52:01.695Z,1.50
2022-12-29T06:57:24.293Z,1.50
2022-12-29T07:02:46.619Z,1.30
2022-12-29T07:08:08.925Z,1.10
2022-12-29T07:13:31.224Z,1.10
2022-12-29T07:18:53.480Z,1.20
2022-12-29T07:24:15.703Z,0.80
2022-12-29T07:29:38.528Z,1.20
2022-12-29T07:35:00.764Z,1.30
2022-12-29T07:40:23.118Z,1.40
2022-12-29T07:45:45.404Z,1.50
2022-12-29T07:51:07.702Z,1.50
2022-12-29T07:56:29.977Z,1.70
2022-12-29T08:01:52.325Z,1.90
2022-12-29T08:07:14.704Z,2.20
2022-12-29T08:12:38.407Z,2.40
2022-12-29T08:18:00.529Z,2.10
2022-12-29T08:23:22.684Z,2.80
2022-12-29T08:28:45.539Z,3.40
2022-12-29T08:34:07.898Z,3.90
2022-12-29T08:39:30.120Z,4.20
2022-12-29T08:44:52.288Z,4.40
2022-12-29T08:50:14.543Z,4.50
2022-12-29T08:55:36.928Z,5.00
2022-12-29T09:00:59.905Z,5.30
2022-12-29T09:06:23.000Z,5.40
2022-12-29T09:11:45.259Z,6.40
2022-12-29T09:17:26.020Z,6.70
2022-12-29T09:22:49.338Z,6.90
2022-12-29T09:28:11.569Z,7.10
2022-12-29T09:33:36.722Z,9.00
2022-12-29T09:38:58.875Z,9.90
2022-12-29T09:44:44.311Z,11.60
2022-12-29T09:50:29.448Z,12.40
2022-12-29T09:55:58.628Z,11.70
2022-12-29T10:01:20.842Z,11.80
2022-12-29T10:07:28.593Z,11.90
2022-12-29T10:12:55.405Z,12.30
2022-12-29T10:18:49.933Z,12.90
2022-12-29T10:24:13.950Z,12.40
2022-12-29T10:29:41.307Z,12.10
2022-12-29T10:35:23.004Z,12.00
2022-12-29T10:40:50.249Z,11.90
2022-12-29T10:46:22.939Z,11.30
2022-12-29T10:51:48.152Z,11.30
2022-12-29T10:57:25.354Z,11.30
2022-12-29T11:03:10.596Z,11.20
2022-12-29T11:08:38.823Z,11.20
2022-12-29T11:14:13.565Z,11.40
2022-12-29T11:19:40.748Z,11.00
2022-12-29T11:25:13.333Z,11.40
2022-12-29T11:30:35.613Z,11.50
2022-12-29T11:36:18.266Z,11.50
2022-12-29T11:41:40.513Z,11.50
2022-12-29T11:47:02.884Z,11.20
2022-12-29T11:52:27.741Z,11.00
2022-12-29T11:57:53.031Z,10.80
2022-12-29T12:03:24.808Z,10.70
2022-12-29T12:08:56.598Z,10.90
2022-12-29T12:14:28.785Z,11.00
2022-12-29T12:20:41.408Z,11.00
2022-12-29T12:26:19.233Z,11.00
2022-12-29T12:31:47.724Z,10.80
2022-12-29T12:37:27.729Z,10.70
2022-12-29T12:43:19.110Z,10.60
2022-12-29T12:48:44.406Z,10.70
2022-12-29T12:54:09.386Z,10.70
2022-12-29T12:59:48.003Z,10.60
2022-12-29T13:05:28.088Z,10.60
2022-12-29T13:11:27.497Z,10.60
2022-12-29T13:17:18.952Z,10.50
2022-12-29T13:22:48.312Z,10.60
2022-12-29T13:28:30.722Z,10.50
2022-12-29T13:34:19.998Z,10.40
2022-12-29T13:39:46.869Z,10.20
2022-12-29T13:45:21.481Z,10.10
2022-12-29T13:50:49.448Z,10.00
2022-12-29T13:56:14.555Z,9.90
2022-12-29T14:02:22.283Z,9.80
2022-12-29T14:07:44.978Z,9.70
2022-12-29T14:13:20.153Z,9.50
2022-12-29T14:18:44.864Z,9.50
2022-12-29T14:24:35.670Z,9.30
2022-12-29T14:29:58.171Z,9.10
2022-12-29T14:35:44.912Z,8.90
2022-12-29T14:41:31.469Z,8.90
2022-12-29T14:46:58.801Z,8.80
2022-12-29T14:52:31.911Z,8.80
2022-12-29T14:58:01.675Z,8.80
2022-12-29T15:03:39.234Z,8.70
2022-12-29T15:09:30.736Z,8.70
2022-12-29T15:14:54.100Z,8.40
2022-12-29T15:20:31.439Z,8.40
2022-12-29T15:25:59.569Z,8.30
2022-12-29T15:31:30.678Z,8.10
2022-12-29T15:36:53.287Z,8.10
2022-12-29T15:42:48.195Z,8.10
2022-12-29T15:48:23.934Z,8.10
2022-12-29T15:53:49.619Z,7.90
2022-12-29T15:59:30.552Z,7.80
2022-12-29T16:05:17.625Z,7.60
2022-12-29T16:10:42.707Z,7.60
2022-12-29T16:16:14.934Z,7.30
2022-12-29T16:21:37.424Z,7.30
2022-12-29T16:27:11.449Z,7.20
2022-12-29T16:32:34.129Z,7.00
2022-12-29T16:38:16.563Z,7.00
2022-12-29T16:43:43.388Z,6.40
2022-12-29T16:49:09.976Z,6.10
2022-12-29T16:54:37.532Z,6.00
2022-12-29T17:00:02.725Z,6.20
2022-12-29T17:05:25.467Z,6.50
2022-12-29T17:11:06.301Z,6.50
2022-12-29T17:16:28.542Z,6.50
2022-12-29T17:21:50.742Z,6.50
2022-12-29T17:27:24.693Z,6.80
2022-12-29T17:32:56.336Z,6.90
2022-12-29T17:38:34.936Z,6.80
2022-12-29T17:43:59.024Z,6.50
2022-12-29T17:49:21.232Z,6.40
2022-12-29T17:54:50.320Z,6.30
2022-12-29T18:00:27.666Z,6.20
2022-12-29T18:05:50.379Z,5.80
2022-12-29T18:11:26.784Z,5.40
2022-12-29T18:16:48.979Z,5.10
2022-12-29T18:22:11.217Z,4.90
2022-12-29T18:27:16.048Z,4.80
2022-12-29T18:32:18.551Z,4.70
2022-12-29T18:37:20.628Z,4.60
2022-12-29T18:42:22.569Z,4.50
2022-12-29T18:47:24.505Z,4.30
2022-12-29T18:52:26.457Z,4.00
2022-12-29T18:57:30.641Z,4.00
2022-12-29T19:02:32.736Z,3.80
2022-12-29T19:07:34.689Z,3.90
2022-12-29T19:12:36.668Z,4.10
2022-12-29T19:17:38.572Z,4.40
2022-12-29T19:22:40.513Z,4.50
2022-12-29T19:27:42.450Z,4.70
2022-12-29T19:32:44.447Z,5.00
2022-12-29T19:37:46.499Z,5.20
2022-12-29T19:42:48.705Z,5.30
2022-12-29T19:47:50.659Z,5.40
2022-12-29T19:52:58.741Z,5.60
2022-12-29T19:58:06.562Z,5.90
2022-12-29T20:03:08.864Z,5.90
2022-12-29T20:08:11.079Z,5.80
2022-12-29T20:13:13.409Z,5.70
2022-12-29T20:18:15.581Z,6.00
2022-12-29T20:23:17.586Z,6.40
2022-12-29T20:28:20.783Z,6.20
2022-12-29T20:33:22.878Z,6.20
2022-12-29T20:38:24.867Z,6.30
2022-12-29T20:43:26.881Z,6.60
2022-12-29T20:48:30.377Z,6.60
2022-12-29T20:53:34.630Z,6.60
2022-12-29T20:58:52.535Z,6.70
2022-12-29T21:04:02.022Z,6.70
2022-12-29T21:09:06.781Z,6.40
2022-12-29T21:14:09.586Z,6.00
2022-12-29T21:19:11.538Z,5.80
2022-12-29T21:24:13.784Z,5.80
2022-12-29T21:29:15.951Z,6.00
2022-12-29T21:34:17.872Z,5.90
2022-12-29T21:39:19.776Z,5.60
2022-12-29T21:44:40.197Z,5.20
2022-12-29T21:49:42.114Z,5.10
2022-12-29T21:55:02.135Z,4.90
2022-12-29T22:00:39.581Z,4.80
2022-12-29T22:06:03.511Z,4.90
2022-12-29T22:11:27.439Z,4.60
2022-12-29T22:16:29.511Z,4.30
2022-12-29T22:21:31.895Z,4.20
2022-12-29T22:26:33.888Z,4.00
2022-12-29T22:31:36.087Z,4.00
2022-12-29T22:36:38.092Z,4.00
2022-12-29T22:41:40.004Z,4.00
2022-12-29T22:46:42.097Z,4.00
2022-12-29T22:51:44.091Z,3.80
2022-12-29T22:56:46.828Z,3.70
2022-12-29T23:01:49.132Z,3.70
2022-12-29T23:06:51.113Z,3.70
2022-12-29T23:11:53.581Z,3.70
2022-12-29T23:16:55.534Z,3.50
2022-12-29T23:21:57.502Z,3.70
2022-12-29T23:26:59.468Z,3.50
2022-12-29T23:32:01.424Z,3.40
2022-12-29T23:37:03.460Z,3.30
2022-12-29T23:42:05.462Z,3.30
2022-12-29T23:47:07.446Z,3.20
2022-12-29T23:52:09.437Z,3.10
2022-12-29T23:57:11.385Z,2.90
